Time;durP1;ratioP1;P1;durP2;ratioP2;P2;SDS_P1;SDS_P2;PMS_P1;PMS_P2;Temp;Humidity;BMP_temperature;BMP_pressure;BME280_temperature;BME280_humidity;BME280_pressure;Samples;Min_cycle;Max_cycle;Signal;HPM_P1;HPM_P2
2022/04/05 00:01:51;;;;;;;14.73;8.32;;;;;;;;;;6316348;28;20048;-75
2022/04/05 00:04:56;;;;;;;13.50;9.38;;;;;;;;;;6318295;28;20045;-75
2022/04/05 00:08:02;;;;;;;14.15;9.15;;;;;;;;;;6316939;28;20063;-75
2022/04/05 00:11:05;;;;;;;15.18;8.93;;;;;;;;;;6317325;28;20123;-75
2022/04/05 00:14:09;;;;;;;17.80;9.52;;;;;;;;;;6317228;28;20479;-75
2022/04/05 00:17:13;;;;;;;14.93;8.65;;;;;;;;;;6316862;28;20068;-75
2022/04/05 00:20:16;;;;;;;13.45;8.88;;;;;;;;;;6317619;28;20048;-74
2022/04/05 00:23:19;;;;;;;14.65;8.90;;;;;;;;;;6316601;28;20054;-75
2022/04/05 00:26:22;;;;;;;14.25;8.43;;;;;;;;;;6317950;28;20059;-75
2022/04/05 00:29:25;;;;;;;13.40;8.70;;;;;;;;;;6317895;28;20044;-75
2022/04/05 00:32:32;;;;;;;12.82;8.25;;;;;;;;;;6315734;28;20040;-76
2022/04/05 00:35:35;;;;;;;13.02;7.57;;;;;;;;;;6316947;28;20170;-74
2022/04/05 00:38:40;;;;;;;13.95;7.88;;;;;;;;;;6316554;28;20048;-75
2022/04/05 00:41:43;;;;;;;12.77;7.75;;;;;;;;;;6315902;28;20576;-75
2022/04/05 00:44:46;;;;;;;11.88;7.57;;;;;;;;;;6314971;28;20048;-73
2022/04/05 00:47:54;;;;;;;12.10;7.50;;;;;;;;;;6317235;28;20414;-75
2022/04/05 00:50:57;;;;;;;13.00;8.00;;;;;;;;;;6316258;28;20299;-75
2022/04/05 00:54:04;;;;;;;13.00;7.75;;;;;;;;;;6316163;28;20041;-76
2022/04/05 00:57:09;;;;;;;15.23;7.68;;;;;;;;;;6317235;28;20052;-75
2022/04/05 01:00:14;;;;;;;13.93;8.05;;;;;;;;;;6317700;28;20055;-75
2022/04/05 01:03:19;;;;;;;14.90;7.60;;;;;;;;;;6316910;28;20538;-75
2022/04/05 01:06:24;;;;;;;14.50;8.18;;;;;;;;;;6315901;28;20044;-76
2022/04/05 01:09:28;;;;;;;11.07;7.68;;;;;;;;;;6317363;28;20501;-75
2022/04/05 01:12:31;;;;;;;10.75;7.15;;;;;;;;;;6316851;28;20169;-75
2022/04/05 01:15:34;;;;;;;13.10;8.02;;;;;;;;;;6321049;28;20055;-75
2022/04/05 01:18:39;;;;;;;12.10;7.82;;;;;;;;;;6321930;28;20046;-75
2022/04/05 01:21:42;;;;;;;12.23;8.10;;;;;;;;;;6322221;28;20532;-74
2022/04/05 01:24:48;;;;;;;14.18;8.73;;;;;;;;;;6320579;28;20088;-75
2022/04/05 01:27:52;;;;;;;13.82;7.57;;;;;;;;;;6319871;28;20048;-76
2022/04/05 01:30:55;;;;;;;12.63;8.35;;;;;;;;;;6321963;28;20048;-75
2022/04/05 01:33:58;;;;;;;10.38;7.93;;;;;;;;;;6321705;28;20417;-75
2022/04/05 01:37:03;;;;;;;12.82;7.90;;;;;;;;;;6320560;28;20509;-75
2022/04/05 01:40:08;;;;;;;14.88;7.68;;;;;;;;;;6321753;28;20044;-75
2022/04/05 01:43:11;;;;;;;14.68;8.43;;;;;;;;;;6321719;28;20040;-75
2022/04/05 01:46:14;;;;;;;14.23;7.60;;;;;;;;;;6319436;28;20052;-73
2022/04/05 01:49:17;;;;;;;14.70;7.63;;;;;;;;;;6319273;28;20060;-75
2022/04/05 01:52:20;;;;;;;17.83;8.68;;;;;;;;;;6321570;28;20510;-75
2022/04/05 01:55:26;;;;;;;14.10;7.85;;;;;;;;;;6319711;28;20371;-75
2022/04/05 01:58:29;;;;;;;12.30;8.02;;;;;;;;;;6320102;28;20040;-75
2022/04/05 02:01:32;;;;;;;14.70;7.50;;;;;;;;;;6321154;28;20044;-75
2022/04/05 02:04:35;;;;;;;11.23;7.13;;;;;;;;;;6321151;28;20040;-75
2022/04/05 02:07:38;;;;;;;11.93;8.15;;;;;;;;;;6318635;28;20513;-75
2022/04/05 02:10:43;;;;;;;12.98;7.47;;;;;;;;;;6319137;28;20040;-75
2022/04/05 02:13:47;;;;;;;14.70;7.43;;;;;;;;;;6319770;28;20515;-74
2022/04/05 02:16:51;;;;;;;12.35;7.05;;;;;;;;;;6319056;28;20058;-75
2022/04/05 02:19:56;;;;;;;13.77;7.85;;;;;;;;;;6318204;28;20401;-74
2022/04/05 02:23:02;;;;;;;13.48;8.10;;;;;;;;;;6319741;28;20048;-75
2022/04/05 02:26:20;;;;;;;12.48;8.13;;;;;;;;;;6320002;28;20576;-75
2022/04/05 02:29:26;;;;;;;15.50;7.88;;;;;;;;;;6318380;28;20044;-76
2022/04/05 02:32:35;;;;;;;14.07;7.68;;;;;;;;;;6318371;28;20107;-76
2022/04/05 02:35:39;;;;;;;13.88;8.23;;;;;;;;;;6319112;28;20052;-75
2022/04/05 02:38:45;;;;;;;15.52;8.07;;;;;;;;;;6320100;28;20043;-75
2022/04/05 02:41:50;;;;;;;16.08;8.70;;;;;;;;;;6317769;28;20048;-75
2022/04/05 02:44:55;;;;;;;13.15;8.45;;;;;;;;;;6318708;28;20036;-75
2022/04/05 02:47:58;;;;;;;14.15;9.43;;;;;;;;;;6318574;28;20059;-75
2022/04/05 02:51:02;;;;;;;14.02;8.75;;;;;;;;;;6317810;28;20489;-75
2022/04/05 02:54:06;;;;;;;14.95;8.77;;;;;;;;;;6317944;28;20048;-75
2022/04/05 02:57:18;;;;;;;18.15;10.00;;;;;;;;;;6318647;28;20044;-76
2022/04/05 03:00:23;;;;;;;14.85;9.52;;;;;;;;;;6318488;28;20047;-75
2022/04/05 03:03:29;;;;;;;14.05;9.18;;;;;;;;;;6317226;28;20070;-75
2022/04/05 03:06:33;;;;;;;14.30;8.45;;;;;;;;;;6318091;28;20402;-75
2022/04/05 03:09:36;;;;;;;14.65;8.63;;;;;;;;;;6318443;28;20078;-75
2022/04/05 03:12:44;;;;;;;16.70;9.50;;;;;;;;;;6317373;28;20055;-75
2022/04/05 03:15:47;;;;;;;13.82;9.00;;;;;;;;;;6317177;28;20148;-75
2022/04/05 03:18:53;;;;;;;14.65;8.80;;;;;;;;;;6318571;28;20040;-75
2022/04/05 03:21:57;;;;;;;14.70;8.40;;;;;;;;;;6319141;28;20498;-75
2022/04/05 03:25:00;;;;;;;14.50;8.13;;;;;;;;;;6316560;28;20161;-75
2022/04/05 03:28:04;;;;;;;14.07;8.63;;;;;;;;;;6317609;28;20040;-76
2022/04/05 03:31:08;;;;;;;;;;;;;;;;;;6318348;28;20040;-75
2022/04/05 03:34:14;;;;;;;13.20;7.30;;;;;;;;;;6317207;28;19926;-75
2022/04/05 03:37:17;;;;;;;15.88;8.35;;;;;;;;;;6315794;28;20051;-75
2022/04/05 03:40:20;;;;;;;13.90;8.95;;;;;;;;;;6317567;28;20051;-75
2022/04/05 03:43:26;;;;;;;14.20;9.15;;;;;;;;;;6317009;28;20093;-75
2022/04/05 03:46:32;;;;;;;14.55;7.85;;;;;;;;;;6315922;28;20040;-75
2022/04/05 03:49:38;;;;;;;15.60;7.53;;;;;;;;;;6317149;28;20055;-74
2022/04/05 03:52:41;;;;;;;15.07;7.43;;;;;;;;;;6317296;28;20075;-74
2022/04/05 03:55:47;;;;;;;13.05;7.43;;;;;;;;;;6316300;28;20506;-75
2022/04/05 03:58:53;;;;;;;13.32;8.00;;;;;;;;;;6315809;28;20044;-74
2022/04/05 04:01:57;;;;;;;11.85;7.32;;;;;;;;;;6317227;28;20040;-75
2022/04/05 04:05:00;;;;;;;13.23;7.68;;;;;;;;;;6314374;28;20093;-75
2022/04/05 04:08:04;;;;;;;14.07;7.65;;;;;;;;;;6312793;28;20044;-74
2022/04/05 04:11:09;;;;;;;12.73;7.55;;;;;;;;;;6314668;28;20047;-75
2022/04/05 04:14:13;;;;;;;11.57;7.50;;;;;;;;;;6314847;28;20048;-75
2022/04/05 04:17:17;;;;;;;14.30;9.88;;;;;;;;;;6313574;28;20047;-75
2022/04/05 04:20:20;;;;;;;11.45;7.65;;;;;;;;;;6315466;28;20039;-74
2022/04/05 04:23:23;;;;;;;11.35;7.13;;;;;;;;;;6317061;28;20433;-75
2022/04/05 04:26:30;;;;;;;11.85;7.57;;;;;;;;;;6316091;28;20063;-75
2022/04/05 04:29:35;;;;;;;13.00;7.72;;;;;;;;;;6315250;28;20123;-74
2022/04/05 04:32:39;;;;;;;15.10;9.23;;;;;;;;;;6317993;28;20051;-74
2022/04/05 04:35:43;;;;;;;12.02;7.65;;;;;;;;;;6317721;28;20052;-74
2022/04/05 04:38:46;;;;;;;12.68;7.75;;;;;;;;;;6316603;28;20052;-75
2022/04/05 04:41:49;;;;;;;16.65;8.88;;;;;;;;;;6316328;28;20051;-74
2022/04/05 04:44:54;;;;;;;14.50;7.60;;;;;;;;;;6316374;28;20226;-75
2022/04/05 04:47:57;;;;;;;18.45;8.00;;;;;;;;;;6316038;28;20428;-74
2022/04/05 04:51:02;;;;;;;12.55;7.50;;;;;;;;;;6315267;28;20044;-74
2022/04/05 04:54:05;;;;;;;15.05;8.20;;;;;;;;;;6317547;28;20054;-75
2022/04/05 04:57:08;;;;;;;13.48;7.47;;;;;;;;;;6317055;28;20067;-74
2022/04/05 05:00:15;;;;;;;14.32;7.57;;;;;;;;;;6314740;28;20123;-74
2022/04/05 05:03:19;;;;;;;12.95;7.68;;;;;;;;;;6317097;28;20051;-74
2022/04/05 05:06:22;;;;;;;13.27;7.90;;;;;;;;;;6317169;28;20470;-74
2022/04/05 05:09:25;;;;;;;14.25;7.82;;;;;;;;;;6316001;28;20394;-74
2022/04/05 05:12:29;;;;;;;18.05;9.88;;;;;;;;;;6315112;28;20962;-75
2022/04/05 05:15:33;;;;;;;16.27;10.43;;;;;;;;;;6317212;28;20079;-75
2022/04/05 05:18:37;;;;;;;18.38;9.82;;;;;;;;;;6316462;28;20173;-75
2022/04/05 05:21:40;;;;;;;15.98;9.75;;;;;;;;;;6314219;28;20055;-76
2022/04/05 05:24:44;;;;;;;17.23;10.13;;;;;;;;;;6315801;28;20048;-76
2022/04/05 05:27:50;;;;;;;14.60;8.98;;;;;;;;;;6316744;28;20048;-76
2022/04/05 05:30:54;;;;;;;15.63;8.35;;;;;;;;;;6314447;28;20402;-75
2022/04/05 05:34:00;;;;;;;17.92;8.18;;;;;;;;;;6315959;28;20048;-75
2022/04/05 05:37:05;;;;;;;16.05;7.32;;;;;;;;;;6316879;28;20038;-75
2022/04/05 05:40:08;;;;;;;15.65;9.68;;;;;;;;;;6314829;28;20067;-75
2022/04/05 05:43:11;;;;;;;18.23;10.85;;;;;;;;;;6314424;28;20660;-75
2022/04/05 05:46:16;;;;;;;15.07;10.50;;;;;;;;;;6316810;28;20040;-74
2022/04/05 05:49:21;;;;;;;18.02;11.05;;;;;;;;;;6315053;28;20052;-75
2022/04/05 05:52:24;;;;;;;17.17;11.38;;;;;;;;;;6315325;28;20478;-75
2022/04/05 05:55:27;;;;;;;20.20;11.77;;;;;;;;;;6316104;28;20369;-74
2022/04/05 05:58:32;;;;;;;17.95;10.48;;;;;;;;;;6316640;28;20051;-75
2022/04/05 06:01:39;;;;;;;13.90;7.90;;;;;;;;;;6319764;28;20051;-75
2022/04/05 06:04:42;;;;;;;11.20;7.30;;;;;;;;;;6318449;28;20040;-74
2022/04/05 06:07:45;;;;;;;12.85;7.60;;;;;;;;;;6320788;28;20048;-74
2022/04/05 06:10:48;;;;;;;14.07;8.05;;;;;;;;;;6320385;28;20051;-75
2022/04/05 06:13:51;;;;;;;12.55;7.57;;;;;;;;;;6319556;28;20512;-74
2022/04/05 06:16:56;;;;;;;15.07;7.80;;;;;;;;;;6320666;28;20044;-75
2022/04/05 06:19:58;;;;;;;11.63;7.03;;;;;;;;;;6319232;28;20039;-75
2022/04/05 06:23:03;;;;;;;12.73;7.18;;;;;;;;;;6318119;28;20051;-73
2022/04/05 06:26:05;;;;;;;12.95;7.95;;;;;;;;;;6318157;28;20036;-75
2022/04/05 06:29:08;;;;;;;12.68;7.43;;;;;;;;;;6318824;28;20433;-75
2022/04/05 06:32:13;;;;;;;13.63;7.18;;;;;;;;;;6318541;28;20046;-74
2022/04/05 06:35:16;;;;;;;10.75;6.65;;;;;;;;;;6319676;28;20485;-75
2022/04/05 06:38:19;;;;;;;12.80;7.28;;;;;;;;;;6320334;28;20036;-75
2022/04/05 06:41:23;;;;;;;19.55;11.98;;;;;;;;;;6319777;28;20803;-75
2022/04/05 06:44:27;;;;;;;19.55;10.85;;;;;;;;;;6317625;28;20360;-75
2022/04/05 06:47:32;;;;;;;20.80;11.77;;;;;;;;;;6318021;28;20067;-75
2022/04/05 06:50:35;;;;;;;22.10;10.48;;;;;;;;;;6319971;28;20390;-76
2022/04/05 06:53:38;;;;;;;18.17;9.73;;;;;;;;;;6319222;28;20380;-75
2022/04/05 06:56:41;;;;;;;15.13;9.50;;;;;;;;;;6318812;28;20182;-75
2022/04/05 06:59:44;;;;;;;17.13;9.10;;;;;;;;;;6318607;28;20109;-76
2022/04/05 07:02:49;;;;;;;18.15;9.75;;;;;;;;;;6319401;28;20405;-75
2022/04/05 07:05:55;;;;;;;11.57;7.60;;;;;;;;;;6317008;28;20044;-75
2022/04/05 07:08:58;;;;;;;14.20;7.75;;;;;;;;;;6317679;28;20526;-75
2022/04/05 07:12:01;;;;;;;13.95;7.53;;;;;;;;;;6317980;28;20040;-75
2022/04/05 07:15:07;;;;;;;13.20;7.47;;;;;;;;;;6319425;28;20036;-75
2022/04/05 07:18:12;;;;;;;11.02;6.93;;;;;;;;;;6316877;28;20051;-73
2022/04/05 07:21:15;;;;;;;10.50;6.93;;;;;;;;;;6317816;28;20043;-75
2022/04/05 07:24:18;;;;;;;11.77;6.32;;;;;;;;;;6318689;28;20481;-75
2022/04/05 07:27:21;;;;;;;12.18;6.93;;;;;;;;;;6318054;28;20401;-75
2022/04/05 07:30:26;;;;;;;13.88;6.70;;;;;;;;;;6318816;28;20043;-75
2022/04/05 07:33:31;;;;;;;11.20;6.82;;;;;;;;;;6317573;28;20490;-73
2022/04/05 07:36:34;;;;;;;10.07;6.70;;;;;;;;;;6316542;28;20049;-75
2022/04/05 07:39:37;;;;;;;9.27;5.90;;;;;;;;;;6316612;28;20051;-75
2022/04/05 07:42:40;;;;;;;14.40;6.60;;;;;;;;;;6318721;28;20063;-75
2022/04/05 07:45:44;;;;;;;7.88;5.88;;;;;;;;;;6318112;28;20185;-75
2022/04/05 07:48:49;;;;;;;9.70;5.72;;;;;;;;;;6317256;28;20124;-75
2022/04/05 07:51:54;;;;;;;8.82;6.20;;;;;;;;;;6317842;28;20044;-74
2022/04/05 07:54:57;;;;;;;10.35;5.60;;;;;;;;;;6318297;28;20048;-75
2022/04/05 07:58:00;;;;;;;8.90;6.00;;;;;;;;;;6317574;28;20155;-76
2022/04/05 08:01:06;;;;;;;9.10;6.03;;;;;;;;;;6317708;28;20055;-74
2022/04/05 08:04:10;;;;;;;10.55;6.03;;;;;;;;;;6317214;28;20044;-74
2022/04/05 08:07:13;;;;;;;12.18;6.65;;;;;;;;;;6317621;28;20044;-74
2022/04/05 08:10:16;;;;;;;9.40;6.70;;;;;;;;;;6315734;28;20123;-74
2022/04/05 08:13:19;;;;;;;12.80;6.30;;;;;;;;;;6318155;28;20055;-75
2022/04/05 08:16:22;;;;;;;8.40;6.40;;;;;;;;;;6317774;28;20478;-74
2022/04/05 08:19:27;;;;;;;10.63;6.53;;;;;;;;;;6317095;28;20044;-75
2022/04/05 08:22:30;;;;;;;8.85;6.57;;;;;;;;;;6316919;28;20402;-73
2022/04/05 08:25:33;;;;;;;10.75;6.07;;;;;;;;;;6316668;28;20433;-74
2022/04/05 08:28:38;;;;;;;7.63;5.30;;;;;;;;;;6315909;28;20051;-75
2022/04/05 08:31:41;;;;;;;9.77;5.80;;;;;;;;;;6315471;28;20044;-74
2022/04/05 08:34:49;;;;;;;8.43;5.88;;;;;;;;;;6317955;28;20109;-76
2022/04/05 08:37:52;;;;;;;10.02;6.00;;;;;;;;;;6317213;28;20047;-75
2022/04/05 08:41:01;;;;;;;14.52;7.47;;;;;;;;;;6316384;28;20040;-75
2022/04/05 08:44:04;;;;;;;9.25;5.32;;;;;;;;;;6315838;28;20093;-75
2022/04/05 08:47:07;;;;;;;8.82;5.05;;;;;;;;;;6316056;28;20052;-75
2022/04/05 08:50:11;;;;;;;230.82;136.52;;;;;;;;;;6316988;28;20050;-75
2022/04/05 08:53:15;;;;;;;152.82;93.18;;;;;;;;;;6315111;28;20121;-75
2022/04/05 08:56:18;;;;;;;10.60;5.90;;;;;;;;;;6317477;28;20040;-74
2022/04/05 08:59:21;;;;;;;8.15;5.63;;;;;;;;;;6315642;28;20050;-74
2022/04/05 09:02:25;;;;;;;8.15;5.65;;;;;;;;;;6316376;28;20048;-74
2022/04/05 09:05:31;;;;;;;7.05;4.93;;;;;;;;;;6317319;28;20051;-75
2022/04/05 09:08:37;;;;;;;6.70;5.57;;;;;;;;;;6317176;28;20363;-74
2022/04/05 09:11:44;;;;;;;10.32;5.97;;;;;;;;;;6316160;28;20047;-75
2022/04/05 09:14:54;;;;;;;8.48;5.68;;;;;;;;;;6314699;28;20521;-75
2022/04/05 09:17:57;;;;;;;7.63;5.00;;;;;;;;;;6317314;28;20796;-75
2022/04/05 09:21:02;;;;;;;7.15;5.38;;;;;;;;;;6316127;28;20051;-74
2022/04/05 09:24:08;;;;;;;33.13;7.90;;;;;;;;;;6314192;28;20052;-75
2022/04/05 09:27:11;;;;;;;7.00;4.97;;;;;;;;;;6316178;28;20106;-75
2022/04/05 09:30:14;;;;;;;7.55;5.30;;;;;;;;;;6314100;28;20040;-76
2022/04/05 09:33:17;;;;;;;10.82;6.32;;;;;;;;;;6314515;28;20484;-75
2022/04/05 09:36:32;;;;;;;66.57;34.47;;;;;;;;;;6319572;28;20040;-75
2022/04/05 09:39:35;;;;;;;9.63;5.53;;;;;;;;;;6320696;28;20096;-74
2022/04/05 09:42:57;;;;;;;7.80;5.65;;;;;;;;;;6319572;28;20051;-75
2022/04/05 09:46:01;;;;;;;8.48;5.65;;;;;;;;;;6320374;28;20074;-75
2022/04/05 09:49:11;;;;;;;8.07;5.40;;;;;;;;;;6320566;28;20060;-74
2022/04/05 09:52:24;;;;;;;9.85;5.78;;;;;;;;;;6320137;28;20040;-75
2022/04/05 09:55:30;;;;;;;10.85;6.43;;;;;;;;;;6320728;28;20056;-76
2022/04/05 09:58:33;;;;;;;10.13;6.68;;;;;;;;;;6318825;28;20044;-75
2022/04/05 10:01:36;;;;;;;10.48;5.88;;;;;;;;;;6321350;28;20177;-76
2022/04/05 10:04:59;;;;;;;7.95;5.95;;;;;;;;;;6320921;28;20564;-75
2022/04/05 10:08:04;;;;;;;8.38;5.57;;;;;;;;;;6319963;28;20048;-74
2022/04/05 10:11:07;;;;;;;;;;;;;;;;;;6320109;28;20109;-74
2022/04/05 10:14:10;;;;;;;7.80;4.85;;;;;;;;;;6303177;28;19920;-74
2022/04/05 10:17:13;;;;;;;8.05;5.20;;;;;;;;;;6318830;28;20040;-75
2022/04/05 10:20:19;;;;;;;8.75;5.63;;;;;;;;;;6318033;28;20486;-74
2022/04/05 10:23:26;;;;;;;10.07;4.95;;;;;;;;;;6320495;28;20043;-75
2022/04/05 10:26:30;;;;;;;7.30;5.32;;;;;;;;;;6319211;28;20414;-75
2022/04/05 10:29:34;;;;;;;7.38;4.78;;;;;;;;;;6317422;28;20044;-75
2022/04/05 10:32:43;;;;;;;7.53;5.22;;;;;;;;;;6319007;28;20048;-75
2022/04/05 10:35:52;;;;;;;10.13;6.25;;;;;;;;;;6319050;28;20379;-75
2022/04/05 10:39:18;;;;;;;11.13;4.85;;;;;;;;;;6318555;28;20086;-75
2022/04/05 10:42:25;;;;;;;8.35;4.85;;;;;;;;;;6319532;28;20044;-75
2022/04/05 10:45:30;;;;;;;8.38;5.78;;;;;;;;;;6318640;28;20044;-75
2022/04/05 10:48:33;;;;;;;7.75;5.32;;;;;;;;;;6319811;28;20060;-73
2022/04/05 10:51:51;;;;;;;8.02;5.47;;;;;;;;;;6319374;28;20040;-76
2022/04/05 10:55:08;;;;;;;8.88;5.00;;;;;;;;;;6318309;28;20051;-74
2022/04/05 10:58:13;;;;;;;8.43;4.97;;;;;;;;;;6318090;28;20058;-75
2022/04/05 11:01:17;;;;;;;5.72;4.70;;;;;;;;;;6318525;28;20097;-74
2022/04/05 11:04:31;;;;;;;6.65;4.45;;;;;;;;;;6319672;28;20098;-74
2022/04/05 11:07:50;;;;;;;5.55;3.63;;;;;;;;;;6318530;28;20048;-75
2022/04/05 11:10:54;;;;;;;5.75;3.85;;;;;;;;;;6317360;28;20052;-73
2022/04/05 11:14:03;;;;;;;6.53;4.25;;;;;;;;;;6319237;28;20093;-73
2022/04/05 11:17:06;;;;;;;5.53;3.90;;;;;;;;;;6318443;28;20043;-74
2022/04/05 11:20:14;;;;;;;4.93;3.95;;;;;;;;;;6318498;28;20510;-74
2022/04/05 11:23:17;;;;;;;4.30;3.22;;;;;;;;;;6319172;28;20048;-74
2022/04/05 11:26:24;;;;;;;5.47;3.72;;;;;;;;;;6316497;28;20044;-74
2022/04/05 11:29:28;;;;;;;4.75;2.55;;;;;;;;;;6315976;28;20047;-74
2022/04/05 11:32:34;;;;;;;6.93;3.72;;;;;;;;;;6318926;28;20172;-75
2022/04/05 11:35:37;;;;;;;3.10;2.80;;;;;;;;;;6318777;28;20405;-75
2022/04/05 11:38:41;;;;;;;4.15;3.35;;;;;;;;;;6316694;28;20044;-75
2022/04/05 11:41:46;;;;;;;7.93;4.20;;;;;;;;;;6317524;28;20127;-74
2022/04/05 11:44:52;;;;;;;4.95;4.00;;;;;;;;;;6318730;28;20478;-74
2022/04/05 11:47:55;;;;;;;8.40;5.18;;;;;;;;;;6316425;28;20419;-74
2022/04/05 11:51:06;;;;;;;4.03;3.15;;;;;;;;;;6315898;28;20044;-74
2022/04/05 11:54:10;;;;;;;4.78;2.83;;;;;;;;;;6318251;28;20044;-75
2022/04/05 11:57:15;;;;;;;3.58;3.05;;;;;;;;;;6317433;28;20040;-75
2022/04/05 12:00:19;;;;;;;4.50;3.00;;;;;;;;;;6316085;28;20050;-75
2022/04/05 12:03:25;;;;;;;4.50;2.78;;;;;;;;;;6315783;28;20555;-76
2022/04/05 12:06:31;;;;;;;5.80;3.47;;;;;;;;;;6316690;28;20127;-74
2022/04/05 12:09:36;;;;;;;15.18;3.75;;;;;;;;;;6316197;28;20543;-74
2022/04/05 12:12:43;;;;;;;5.00;3.65;;;;;;;;;;6317023;28;20048;-74
2022/04/05 12:15:46;;;;;;;68.90;43.83;;;;;;;;;;6316156;28;20469;-75
2022/04/05 12:18:51;;;;;;;23.33;12.68;;;;;;;;;;6316420;28;20119;-75
2022/04/05 12:21:55;;;;;;;6.63;3.28;;;;;;;;;;6317090;28;20477;-72
2022/04/05 12:24:58;;;;;;;4.80;3.20;;;;;;;;;;6316836;28;20040;-73
2022/04/05 12:28:04;;;;;;;3.30;2.72;;;;;;;;;;6317755;28;20070;-74
2022/04/05 12:31:11;;;;;;;5.25;2.88;;;;;;;;;;6315578;28;20044;-74
2022/04/05 12:34:15;;;;;;;3.90;2.83;;;;;;;;;;6316318;28;20427;-75
2022/04/05 12:37:20;;;;;;;4.82;2.55;;;;;;;;;;6316091;28;20048;-75
2022/04/05 12:40:27;;;;;;;3.22;2.38;;;;;;;;;;6315722;28;20455;-75
2022/04/05 12:43:31;;;;;;;2.90;2.20;;;;;;;;;;6315096;28;20048;-74
2022/04/05 12:46:38;;;;;;;2.88;2.28;;;;;;;;;;6333891;28;20359;-74
2022/04/05 12:49:42;;;;;;;3.83;2.10;;;;;;;;;;6342237;28;20040;-74
2022/04/05 12:52:46;;;;;;;2.63;2.25;;;;;;;;;;6341518;28;20540;-74
2022/04/05 12:55:54;;;;;;;4.05;2.50;;;;;;;;;;6341238;28;20047;-76
2022/04/05 12:59:07;;;;;;;2.88;2.10;;;;;;;;;;6340973;28;20044;-75
2022/04/05 13:02:15;;;;;;;2.85;2.47;;;;;;;;;;6341871;28;20481;-73
2022/04/05 13:08:42;;;;;;;4.28;2.63;;;;;;;;;;6340737;28;20054;-74
2022/04/05 13:11:45;;;;;;;3.72;2.80;;;;;;;;;;6346951;28;20078;-73
2022/04/05 13:14:49;;;;;;;3.30;2.55;;;;;;;;;;6346669;28;20050;-74
2022/04/05 13:18:03;;;;;;;4.35;2.95;;;;;;;;;;6344654;28;20508;-75
2022/04/05 13:21:07;;;;;;;3.90;2.80;;;;;;;;;;6346442;28;20052;-74
2022/04/05 13:24:11;;;;;;;5.15;2.85;;;;;;;;;;6347046;28;20097;-75
2022/04/05 13:27:14;;;;;;;3.00;2.55;;;;;;;;;;6346721;28;20066;-74
2022/04/05 13:30:19;;;;;;;4.25;3.20;;;;;;;;;;6344725;28;20071;-74
2022/04/05 13:33:25;;;;;;;5.40;3.10;;;;;;;;;;6347267;28;20190;-75
2022/04/05 13:36:28;;;;;;;3.92;3.30;;;;;;;;;;6345919;28;20082;-75
2022/04/05 13:39:34;;;;;;;3.50;2.75;;;;;;;;;;6345462;28;20055;-74
2022/04/05 13:42:37;;;;;;;3.85;3.20;;;;;;;;;;6346128;28;20108;-74
2022/04/05 13:45:42;;;;;;;5.88;3.05;;;;;;;;;;6346358;28;20050;-73
2022/04/05 13:48:45;;;;;;;3.55;2.88;;;;;;;;;;6345779;28;20532;-75
2022/04/05 13:51:54;;;;;;;4.03;3.58;;;;;;;;;;6343093;28;20201;-74
2022/04/05 13:55:17;;;;;;;7.88;3.30;;;;;;;;;;6345548;28;20082;-75
2022/04/05 13:58:22;;;;;;;3.83;2.92;;;;;;;;;;6341366;28;20110;-73
2022/04/05 14:01:27;;;;;;;5.63;2.80;;;;;;;;;;6341222;28;20501;-72
2022/04/05 14:04:30;;;;;;;4.07;3.00;;;;;;;;;;6343816;28;20043;-75
2022/04/05 14:07:33;;;;;;;2.83;2.60;;;;;;;;;;6344749;28;20478;-75
2022/04/05 14:10:39;;;;;;;4.07;3.25;;;;;;;;;;6345516;28;20086;-73
2022/04/05 14:14:05;;;;;;;4.00;2.50;;;;;;;;;;6343755;28;20050;-74
2022/04/05 14:17:10;;;;;;;6.00;2.50;;;;;;;;;;6344199;28;20127;-75
2022/04/05 14:20:13;;;;;;;2.10;1.90;;;;;;;;;;6344675;27;20513;-72
2022/04/05 14:23:17;;;;;;;2.20;2.00;;;;;;;;;;6345125;28;20062;-74
2022/04/05 14:26:23;;;;;;;3.60;2.03;;;;;;;;;;6343391;28;20489;-74
2022/04/05 14:29:26;;;;;;;2.70;1.40;;;;;;;;;;6345844;28;20074;-75
2022/04/05 14:32:30;;;;;;;1.70;1.60;;;;;;;;;;6344400;28;20126;-74
2022/04/05 14:35:42;;;;;;;4.10;1.77;;;;;;;;;;6344163;28;20482;-76
2022/04/05 14:38:48;;;;;;;2.83;2.25;;;;;;;;;;6345178;28;20059;-74
2022/04/05 14:41:51;;;;;;;2.75;2.00;;;;;;;;;;6345074;28;20047;-75
2022/04/05 14:44:54;;;;;;;2.92;1.98;;;;;;;;;;6343104;28;20074;-73
2022/04/05 14:48:18;;;;;;;2.17;1.85;;;;;;;;;;6343553;28;20054;-74
2022/04/05 14:51:23;;;;;;;23.13;13.93;;;;;;;;;;6346198;28;20035;-74
2022/04/05 14:54:28;;;;;;;5.00;2.30;;;;;;;;;;6342803;28;20044;-74
2022/04/05 14:57:31;;;;;;;3.22;2.13;;;;;;;;;;6343071;28;20074;-74
2022/04/05 15:00:34;;;;;;;5.47;2.08;;;;;;;;;;6342725;28;20047;-75
2022/04/05 15:03:38;;;;;;;2.03;1.80;;;;;;;;;;6344176;28;20071;-73
2022/04/05 15:06:41;;;;;;;5.25;2.10;;;;;;;;;;6340621;28;20048;-74
2022/04/05 15:09:48;;;;;;;4.97;2.17;;;;;;;;;;6339834;28;20539;-74
2022/04/05 15:12:52;;;;;;;2.53;2.10;;;;;;;;;;6341787;28;20409;-74
2022/04/05 15:15:55;;;;;;;3.70;2.50;;;;;;;;;;6340614;28;20180;-73
2022/04/05 15:19:00;;;;;;;3.03;2.00;;;;;;;;;;6339155;28;20063;-73
2022/04/05 15:22:03;;;;;;;3.08;2.10;;;;;;;;;;6338458;28;20134;-72
2022/04/05 15:25:10;;;;;;;2.97;2.10;;;;;;;;;;6338289;28;20054;-73
2022/04/05 15:28:13;;;;;;;2.33;2.13;;;;;;;;;;6339161;28;20067;-73
2022/04/05 15:31:17;;;;;;;4.00;2.65;;;;;;;;;;6339870;28;20044;-75
2022/04/05 15:34:23;;;;;;;3.55;2.40;;;;;;;;;;6343012;28;20054;-74
2022/04/05 15:37:42;;;;;;;2.50;2.30;;;;;;;;;;6342093;28;20051;-73
2022/04/05 15:40:45;;;;;;;2.85;2.40;;;;;;;;;;6342812;28;20098;-74
2022/04/05 15:43:50;;;;;;;2.80;2.50;;;;;;;;;;6343777;28;20191;-75
2022/04/05 15:46:53;;;;;;;3.08;2.08;;;;;;;;;;6343182;28;20501;-73
2022/04/05 15:50:01;;;;;;;5.93;2.00;;;;;;;;;;6343189;28;20071;-74
2022/04/05 15:53:06;;;;;;;2.20;1.90;;;;;;;;;;6340873;28;20164;-73
2022/04/05 15:56:12;;;;;;;4.53;1.58;;;;;;;;;;6344068;28;20062;-74
2022/04/05 15:59:19;;;;;;;;;;;;;;;;;;6342433;28;20443;-74
2022/04/05 16:02:21;;;;;;;2.15;1.75;;;;;;;;;;6342191;28;20057;-73
2022/04/05 16:05:26;;;;;;;2.33;1.70;;;;;;;;;;6342999;28;20094;-75
2022/04/05 16:08:31;;;;;;;4.45;1.70;;;;;;;;;;6343661;28;20492;-73
2022/04/05 16:11:36;;;;;;;1.80;1.70;;;;;;;;;;6341076;28;20055;-74
2022/04/05 16:14:39;;;;;;;1.70;1.60;;;;;;;;;;6342180;28;20047;-75
2022/04/05 16:17:42;;;;;;;2.33;1.60;;;;;;;;;;6341994;28;20099;-75
2022/04/05 16:20:47;;;;;;;1.65;1.55;;;;;;;;;;6341392;28;20044;-74
2022/04/05 16:23:53;;;;;;;4.93;1.60;;;;;;;;;;6340757;28;20328;-75
2022/04/05 16:26:56;;;;;;;1.50;1.35;;;;;;;;;;6342927;28;20035;-75
2022/04/05 16:29:59;;;;;;;1.48;1.38;;;;;;;;;;6341374;28;20067;-74
2022/04/05 16:33:03;;;;;;;1.40;1.10;;;;;;;;;;6340977;28;20046;-75
2022/04/05 16:36:10;;;;;;;2.07;1.70;;;;;;;;;;6342124;28;20070;-75
2022/04/05 16:39:15;;;;;;;6.88;2.83;;;;;;;;;;6343014;28;20051;-74
2022/04/05 16:42:21;;;;;;;;;;;;;;;;;;6341429;28;20063;-74
2022/04/05 16:45:23;;;;;;;2.20;1.60;;;;;;;;;;6340743;28;20377;-74
2022/04/05 16:48:26;;;;;;;2.72;1.48;;;;;;;;;;6342911;28;20079;-74
2022/04/05 16:51:31;;;;;;;6.38;2.75;;;;;;;;;;6342365;28;20045;-75
2022/04/05 16:54:34;;;;;;;6.30;2.08;;;;;;;;;;6341787;28;20473;-74
2022/04/05 16:57:37;;;;;;;4.30;2.47;;;;;;;;;;6341507;28;20031;-74
2022/04/05 17:00:40;;;;;;;2.33;2.05;;;;;;;;;;6342538;28;20078;-74
2022/04/05 17:03:43;;;;;;;3.75;1.80;;;;;;;;;;6342069;28;20516;-75
2022/04/05 17:06:48;;;;;;;4.85;2.10;;;;;;;;;;6341402;28;20136;-74
2022/04/05 17:09:51;;;;;;;5.53;2.53;;;;;;;;;;6342703;28;20046;-74
2022/04/05 17:12:54;;;;;;;4.38;2.53;;;;;;;;;;6340534;28;20064;-74
2022/04/05 17:15:59;;;;;;;;;;;;;;;;;;6342023;28;20047;-75
2022/04/05 17:19:03;;;;;;;3.85;2.50;;;;;;;;;;6341802;28;20383;-72
2022/04/05 17:22:08;;;;;;;2.40;2.20;;;;;;;;;;6342139;28;20508;-74
2022/04/05 17:25:14;;;;;;;3.65;2.30;;;;;;;;;;6341795;28;20067;-74
2022/04/05 17:28:17;;;;;;;4.03;2.25;;;;;;;;;;6341247;28;20048;-74
2022/04/05 17:31:20;;;;;;;2.90;2.60;;;;;;;;;;6340801;28;20075;-74
2022/04/05 17:34:23;;;;;;;2.78;2.13;;;;;;;;;;6341211;28;20066;-73
2022/04/05 17:37:27;;;;;;;3.03;2.38;;;;;;;;;;6339525;28;20119;-74
2022/04/05 17:40:30;;;;;;;5.85;2.17;;;;;;;;;;6340533;28;20283;-75
2022/04/05 17:43:37;;;;;;;4.63;2.53;;;;;;;;;;6340228;28;20435;-73
2022/04/05 17:46:40;;;;;;;3.70;2.60;;;;;;;;;;6340900;28;20050;-74
2022/04/05 17:49:43;;;;;;;4.70;2.70;;;;;;;;;;6339045;28;20136;-73
2022/04/05 17:52:49;;;;;;;3.80;2.25;;;;;;;;;;6341892;28;20051;-74
2022/04/05 17:55:52;;;;;;;2.55;2.08;;;;;;;;;;6342318;28;20139;-74
2022/04/05 17:59:00;;;;;;;3.08;2.30;;;;;;;;;;6343993;28;20058;-74
2022/04/05 18:02:03;;;;;;;3.53;2.67;;;;;;;;;;6344873;28;20404;-73
2022/04/05 18:05:08;;;;;;;7.35;2.97;;;;;;;;;;6345831;28;20048;-74
2022/04/05 18:08:12;;;;;;;4.05;2.72;;;;;;;;;;6344585;28;20051;-74
2022/04/05 18:11:17;;;;;;;4.50;2.60;;;;;;;;;;6345920;28;20130;-74
2022/04/05 18:14:24;;;;;;;3.65;2.53;;;;;;;;;;6346245;28;20104;-74
2022/04/05 18:17:27;;;;;;;4.70;3.13;;;;;;;;;;6344172;28;20050;-74
2022/04/05 18:20:30;;;;;;;5.45;2.88;;;;;;;;;;6343246;28;20507;-74
2022/04/05 18:23:34;;;;;;;5.38;4.10;;;;;;;;;;6345971;28;20405;-74
2022/04/05 18:26:39;;;;;;;6.05;3.72;;;;;;;;;;6345528;28;20067;-75